createdAt,value
2023-10-18T00:02:20.159Z,101198.47
2023-10-18T00:04:48.657Z,101197.97
2023-10-18T00:07:20.131Z,101193.56
2023-10-18T00:09:51.355Z,101184.19
2023-10-18T00:12:28.451Z,101189.22
2023-10-18T00:15:03.111Z,101180.13
2023-10-18T00:17:34.837Z,101181.88
2023-10-18T00:20:07.385Z,101175.03
2023-10-18T00:22:35.755Z,101179.19
2023-10-18T00:25:07.376Z,101183.09
2023-10-18T00:27:43.494Z,101183.97
2023-10-18T00:30:23.829Z,101180.63
2023-10-18T00:32:55.120Z,101174.56
2023-10-18T00:35:32.897Z,101178.78
2023-10-18T00:38:01.528Z,101177.63
2023-10-18T00:40:38.901Z,101177.53
2023-10-18T00:43:15.727Z,101172.59
2023-10-18T00:45:48.833Z,101176.31
2023-10-18T00:48:18.843Z,101175.59
2023-10-18T00:50:53.460Z,101163.94
2023-10-18T00:53:32.413Z,101167.34
2023-10-18T00:56:05.974Z,101171.69
2023-10-18T00:58:40.287Z,101158.44
2023-10-18T01:01:12.402Z,101159.34
2023-10-18T01:03:47.533Z,101156.66
2023-10-18T01:06:21.939Z,101165.75
2023-10-18T01:08:54.137Z,101156.78
2023-10-18T01:11:28.865Z,101148.88
2023-10-18T01:14:01.899Z,101150.06
2023-10-18T01:16:37.937Z,101147.34
2023-10-18T01:19:09.678Z,101142.56
2023-10-18T01:21:47.274Z,101140.44
2023-10-18T01:24:17.567Z,101143.13
2023-10-18T01:26:49.693Z,101142.44
2023-10-18T01:29:18.090Z,101137.84
2023-10-18T01:31:57.308Z,101124.53
2023-10-18T01:34:27.334Z,101121.41
2023-10-18T01:36:57.914Z,101113.69
2023-10-18T01:42:15.177Z,101110.03
2023-10-18T01:44:46.896Z,101112.13
2023-10-18T01:47:15.951Z,101109.88
2023-10-18T01:49:47.874Z,101106.53
2023-10-18T01:52:20.531Z,101103.78
2023-10-18T01:54:58.125Z,101097.44
2023-10-18T01:57:39.466Z,101102.53
2023-10-18T02:00:16.641Z,101097.13
2023-10-18T02:02:50.161Z,101085.47
2023-10-18T02:05:20.134Z,101088.91
2023-10-18T02:07:49.660Z,101085.66
2023-10-18T02:10:24.404Z,101087.72
2023-10-18T02:12:59.547Z,101087.78
2023-10-18T02:15:31.940Z,101082.38
2023-10-18T02:20:33.097Z,101086.41
2023-10-18T02:23:14.675Z,101073.19
2023-10-18T02:25:47.030Z,101069.91
2023-10-18T02:28:29.826Z,101061.69
2023-10-18T02:31:25.222Z,101071.19
2023-10-18T02:33:56.442Z,101072.13
2023-10-18T02:36:39.837Z,101059.19
2023-10-18T02:39:10.128Z,101061.31
2023-10-18T02:41:44.468Z,101057.59
2023-10-18T02:44:23.046Z,101045.38
2023-10-18T02:47:12.273Z,101045.38
2023-10-18T02:49:40.582Z,101041.13
2023-10-18T02:52:18.895Z,101051.75
2023-10-18T02:54:50.298Z,101037.31
2023-10-18T02:57:19.460Z,101040.13
2023-10-18T02:59:51.655Z,101031.72
2023-10-18T03:02:25.473Z,101029.41
2023-10-18T03:04:57.520Z,101027.63
2023-10-18T03:07:36.070Z,101021.31
2023-10-18T03:10:14.327Z,101026.41
2023-10-18T03:12:46.516Z,101024.09
2023-10-18T03:15:22.339Z,101019.53
2023-10-18T03:17:53.449Z,101011.56
2023-10-18T03:20:31.703Z,101006.00
2023-10-18T03:23:03.832Z,101005.63
2023-10-18T03:25:32.851Z,101003.41
2023-10-18T03:28:15.054Z,101007.78
2023-10-18T03:30:57.965Z,101002.53
2023-10-18T03:33:29.461Z,100996.44
2023-10-18T03:36:19.934Z,100987.97
2023-10-18T03:38:58.257Z,101003.94
2023-10-18T03:41:26.952Z,100992.72
2023-10-18T03:44:04.633Z,100992.84
2023-10-18T03:46:50.586Z,100986.81
2023-10-18T03:49:34.592Z,100976.72
2023-10-18T03:52:18.089Z,100973.97
2023-10-18T03:54:47.540Z,100961.28
2023-10-18T03:57:19.664Z,100966.03
2023-10-18T03:59:53.919Z,100963.84
2023-10-18T04:02:36.138Z,100964.88
2023-10-18T04:05:22.986Z,100966.59
2023-10-18T04:07:51.450Z,100954.84
2023-10-18T04:10:25.867Z,100958.97
2023-10-18T04:12:55.273Z,100959.28
2023-10-18T04:15:38.954Z,100955.56
2023-10-18T04:18:16.901Z,100953.44
2023-10-18T04:20:48.388Z,100952.50
2023-10-18T04:23:19.750Z,100944.47
2023-10-18T04:25:58.728Z,100943.22
2023-10-18T04:28:27.797Z,100946.94
2023-10-18T04:31:02.530Z,100936.91
2023-10-18T04:33:37.533Z,100929.25
2023-10-18T04:36:11.904Z,100921.47
2023-10-18T04:38:44.162Z,100920.00
2023-10-18T04:41:24.811Z,100914.94
2023-10-18T04:43:55.043Z,100913.56
2023-10-18T04:46:27.898Z,100900.13
2023-10-18T04:52:06.288Z,100896.13
2023-10-18T04:54:37.618Z,100885.28
2023-10-18T04:57:12.648Z,100878.22
2023-10-18T04:59:46.590Z,100876.66
2023-10-18T05:02:29.491Z,100875.63
2023-10-18T05:05:05.282Z,100872.91
2023-10-18T05:07:48.595Z,100868.09
2023-10-18T05:10:26.417Z,100857.97
2023-10-18T05:13:09.808Z,100864.53
2023-10-18T05:15:39.724Z,100876.44
2023-10-18T05:18:16.476Z,100869.94
2023-10-18T05:20:56.757Z,100867.28
2023-10-18T05:23:35.698Z,100863.00
2023-10-18T05:26:18.393Z,100855.63
2023-10-18T05:28:53.555Z,100857.91
2023-10-18T05:32:06.957Z,100855.38
2023-10-18T05:37:34.610Z,100860.16
2023-10-18T05:40:16.830Z,100856.47
2023-10-18T05:42:52.503Z,100853.34
2023-10-18T05:45:24.165Z,100853.44
2023-10-18T05:47:58.873Z,100843.16
2023-10-18T05:50:29.995Z,100845.56
2023-10-18T05:53:19.071Z,100841.56
2023-10-18T05:55:59.499Z,100842.13
2023-10-18T05:58:33.785Z,100840.88
2023-10-18T06:01:04.824Z,100839.22
2023-10-18T06:03:47.203Z,100832.56
2023-10-18T06:06:15.524Z,100835.81
2023-10-18T06:08:45.194Z,100835.34
2023-10-18T06:11:20.814Z,100831.63
2023-10-18T06:13:53.769Z,100829.22
2023-10-18T06:16:34.364Z,100829.75
2023-10-18T06:19:08.027Z,100819.94
2023-10-18T06:21:39.406Z,100822.16
2023-10-18T06:24:19.503Z,100821.53
2023-10-18T06:26:55.959Z,100814.78
2023-10-18T06:29:27.428Z,100820.13
2023-10-18T06:31:57.714Z,100823.84
2023-10-18T06:34:28.420Z,100818.56
2023-10-18T06:37:02.528Z,100822.88
2023-10-18T06:39:35.542Z,100815.75
2023-10-18T06:42:07.686Z,100817.13
2023-10-18T06:44:36.009Z,100805.72
2023-10-18T06:47:07.579Z,100802.53
2023-10-18T06:49:35.991Z,100804.41
2023-10-18T06:52:05.959Z,100801.06
2023-10-18T06:54:40.768Z,100800.38
2023-10-18T06:57:17.608Z,100803.00
2023-10-18T06:59:51.430Z,100791.13
2023-10-18T07:02:29.172Z,100785.97
2023-10-18T07:05:02.029Z,100787.41
2023-10-18T07:07:31.578Z,100780.34
2023-10-18T07:10:07.019Z,100772.09
2023-10-18T07:12:49.075Z,100780.19
2023-10-18T07:15:24.199Z,100787.38
2023-10-18T07:17:56.626Z,100777.53
2023-10-18T07:20:35.073Z,100777.25
2023-10-18T07:23:03.406Z,100766.97
2023-10-18T07:25:42.213Z,100765.91
2023-10-18T07:28:18.375Z,100765.78
2023-10-18T07:30:47.792Z,100761.06
2023-10-18T07:33:24.544Z,100757.19
2023-10-18T07:36:01.685Z,100750.63
2023-10-18T07:38:32.884Z,100743.47
2023-10-18T07:41:02.718Z,100743.28
2023-10-18T07:43:33.393Z,100731.94
2023-10-18T07:46:10.907Z,100731.91
2023-10-18T07:48:56.151Z,100724.47
2023-10-18T07:51:32.977Z,100720.38
2023-10-18T07:54:06.651Z,100720.69
2023-10-18T07:56:41.835Z,100715.25
2023-10-18T07:59:24.008Z,100710.06
2023-10-18T08:02:15.268Z,100709.31
2023-10-18T08:04:49.421Z,100711.22
2023-10-18T08:07:21.268Z,100707.09
2023-10-18T08:09:53.381Z,100716.28
2023-10-18T08:12:31.974Z,100707.94
2023-10-18T08:15:14.784Z,100700.56
2023-10-18T08:17:45.659Z,100706.78
2023-10-18T08:20:44.855Z,100693.00
2023-10-18T08:23:38.164Z,100693.25
2023-10-18T08:26:06.598Z,100687.97
2023-10-18T08:28:55.100Z,100679.91
2023-10-18T08:31:36.843Z,100689.06
2023-10-18T08:34:11.819Z,100684.72
2023-10-18T08:36:40.141Z,100681.88
2023-10-18T08:39:11.754Z,100678.13
2023-10-18T08:41:58.195Z,100666.63
2023-10-18T08:44:33.201Z,100671.19
2023-10-18T08:47:14.550Z,100666.69
2023-10-18T08:49:53.482Z,100661.84
2023-10-18T08:52:25.201Z,100668.03
2023-10-18T08:54:54.735Z,100656.94
2023-10-18T08:57:35.876Z,100655.25
2023-10-18T09:00:40.808Z,100649.66
2023-10-18T09:03:09.849Z,100639.53
2023-10-18T09:05:38.518Z,100639.47
2023-10-18T09:08:08.347Z,100645.94
2023-10-18T09:10:48.617Z,100643.59
2023-10-18T09:13:38.921Z,100645.75
2023-10-18T09:16:14.200Z,100640.13
2023-10-18T09:18:45.844Z,100637.81
2023-10-18T09:21:20.338Z,100626.56
2023-10-18T09:23:51.126Z,100634.06
2023-10-18T09:26:28.253Z,100635.53
2023-10-18T09:29:01.402Z,100634.63
2023-10-18T09:31:34.137Z,100628.06
2023-10-18T09:34:10.118Z,100619.91
2023-10-18T09:36:48.762Z,100621.91
2023-10-18T09:39:22.196Z,100623.72
2023-10-18T09:41:59.864Z,100622.00
2023-10-18T09:44:28.285Z,100616.47
2023-10-18T09:47:00.764Z,100608.25
2023-10-18T09:49:33.747Z,100608.41
2023-10-18T09:52:06.188Z,100598.56
2023-10-18T09:54:39.146Z,100596.03
2023-10-18T09:57:20.135Z,100594.34
2023-10-18T09:59:53.111Z,100592.34
2023-10-18T10:02:29.912Z,100588.38
2023-10-18T10:05:15.421Z,100581.41
2023-10-18T10:07:48.768Z,100572.03
2023-10-18T10:10:27.923Z,100572.03
2023-10-18T10:12:59.618Z,100566.97
2023-10-18T10:15:29.824Z,100560.47
2023-10-18T10:18:02.595Z,100553.59
2023-10-18T10:20:34.105Z,100563.97
2023-10-18T10:23:16.620Z,100555.63
2023-10-18T10:26:28.618Z,100549.28
2023-10-18T10:29:20.560Z,100541.88
2023-10-18T10:31:53.182Z,100538.78
2023-10-18T10:34:36.196Z,100533.25
2023-10-18T10:37:12.435Z,100527.06
2023-10-18T10:39:46.613Z,100530.16
2023-10-18T10:42:29.103Z,100515.34
2023-10-18T10:45:10.818Z,100498.69
2023-10-18T10:47:58.881Z,100496.06
2023-10-18T10:50:47.144Z,100484.31
2023-10-18T10:53:32.601Z,100469.31
2023-10-18T10:56:18.539Z,100459.31
2023-10-18T10:59:04.778Z,100450.97
2023-10-18T11:02:10.427Z,100445.38
2023-10-18T11:04:59.372Z,100438.31
2023-10-18T11:07:30.635Z,100421.97
2023-10-18T11:10:16.133Z,100416.88
2023-10-18T11:12:58.103Z,100423.84
2023-10-18T11:15:29.242Z,100428.25
2023-10-18T11:18:11.112Z,100415.13
2023-10-18T11:20:53.751Z,100405.22
2023-10-18T11:23:27.160Z,100399.41
2023-10-18T11:26:09.823Z,100392.31
2023-10-18T11:28:39.495Z,100389.34
2023-10-18T11:31:09.070Z,100376.03
2023-10-18T11:33:50.538Z,100377.84
2023-10-18T11:36:20.714Z,100370.28
2023-10-18T11:39:08.688Z,100363.31
2023-10-18T11:41:37.540Z,100371.97
2023-10-18T11:44:17.615Z,100358.94
2023-10-18T11:46:51.282Z,100356.16
2023-10-18T11:49:21.436Z,100341.78
2023-10-18T11:51:52.096Z,100344.31
2023-10-18T11:54:40.808Z,100336.81
2023-10-18T11:57:31.092Z,100336.41
2023-10-18T12:00:19.036Z,100327.41
2023-10-18T12:02:50.424Z,100326.00
2023-10-18T12:05:27.199Z,100320.59
2023-10-18T12:08:07.152Z,100314.06
2023-10-18T12:10:37.164Z,100308.09
2023-10-18T12:13:08.443Z,100307.91
2023-10-18T12:15:38.347Z,100305.72
2023-10-18T12:18:10.842Z,100296.28
2023-10-18T12:20:45.594Z,100298.69
2023-10-18T12:23:19.750Z,100283.78
2023-10-18T12:26:00.965Z,100285.53
2023-10-18T12:28:30.093Z,100279.28
2023-10-18T12:31:01.999Z,100259.31
2023-10-18T12:33:35.529Z,100266.22
2023-10-18T12:36:10.299Z,100256.16
2023-10-18T12:38:40.310Z,100252.81
2023-10-18T12:41:19.427Z,100244.84
2023-10-18T12:43:55.699Z,100233.69
2023-10-18T12:46:24.191Z,100237.16
2023-10-18T12:48:58.745Z,100227.47
2023-10-18T12:54:20.409Z,100214.25
2023-10-18T12:56:59.377Z,100203.38
2023-10-18T12:59:41.445Z,100200.97
2023-10-18T13:02:35.734Z,100194.78
2023-10-18T13:05:09.986Z,100185.72
2023-10-18T13:07:41.936Z,100185.63
2023-10-18T13:10:13.854Z,100183.25
2023-10-18T13:12:55.192Z,100169.22
2023-10-18T13:15:24.143Z,100165.66
2023-10-18T13:17:56.127Z,100155.78
2023-10-18T13:20:26.545Z,100151.84
2023-10-18T13:23:08.265Z,100132.72
2023-10-18T13:25:52.847Z,100131.84
2023-10-18T13:28:34.678Z,100125.72
2023-10-18T13:31:09.248Z,100119.78
2023-10-18T13:33:41.167Z,100115.03
2023-10-18T13:36:14.690Z,100104.38
2023-10-18T13:38:53.460Z,100093.69
2023-10-18T13:41:24.791Z,100086.28
2023-10-18T13:44:00.474Z,100077.00
2023-10-18T13:46:32.067Z,100065.44
2023-10-18T13:49:03.211Z,100059.38
2023-10-18T13:51:38.359Z,100045.94
2023-10-18T13:54:08.474Z,100045.50
2023-10-18T13:56:37.240Z,100044.19
2023-10-18T13:59:07.283Z,100042.13
2023-10-18T14:01:35.992Z,100032.97
2023-10-18T14:04:06.647Z,100016.88
2023-10-18T14:06:51.477Z,100012.09
2023-10-18T14:09:32.796Z,100002.09
2023-10-18T14:12:02.782Z,100006.63
2023-10-18T14:14:34.105Z,100006.63
2023-10-18T14:17:06.234Z,100005.22
2023-10-18T14:19:39.652Z,100002.69
2023-10-18T14:22:08.262Z,100004.25
2023-10-18T14:24:36.544Z,99997.34
2023-10-18T14:27:14.928Z,99988.81
2023-10-18T14:29:50.698Z,99983.56
2023-10-18T14:32:19.996Z,99984.53
2023-10-18T14:34:55.327Z,99990.75
2023-10-18T14:37:23.911Z,99977.44
2023-10-18T14:39:58.937Z,99979.94
2023-10-18T14:42:33.385Z,99970.88
2023-10-18T14:45:08.283Z,99966.59
2023-10-18T14:47:39.742Z,99960.56
2023-10-18T14:50:11.522Z,99949.63
2023-10-18T14:52:43.822Z,99946.16
2023-10-18T14:55:13.578Z,99949.63
2023-10-18T14:57:42.604Z,99942.25
2023-10-18T15:00:14.028Z,99936.38
2023-10-18T15:02:42.555Z,99933.34
2023-10-18T15:05:11.979Z,99929.22
2023-10-18T15:07:40.441Z,99927.59
2023-10-18T15:10:11.925Z,99914.06
2023-10-18T15:12:44.564Z,99911.50
2023-10-18T15:15:15.437Z,99912.28
2023-10-18T15:17:49.733Z,99914.94
2023-10-18T15:20:20.991Z,99914.66
2023-10-18T15:22:57.899Z,99912.47
2023-10-18T15:25:26.902Z,99907.78
2023-10-18T15:28:06.911Z,99912.06
2023-10-18T15:30:37.601Z,99905.28
2023-10-18T15:33:10.464Z,99899.47
2023-10-18T15:35:39.046Z,99901.72
2023-10-18T15:38:08.636Z,99904.22
2023-10-18T15:40:40.020Z,99897.88
2023-10-18T15:43:16.744Z,99887.16
2023-10-18T15:45:51.965Z,99893.69
2023-10-18T15:48:20.309Z,99885.53
2023-10-18T15:50:49.919Z,99882.78
2023-10-18T15:53:24.899Z,99866.19
2023-10-18T15:55:59.198Z,99873.66
2023-10-18T15:58:30.628Z,99867.63
2023-10-18T16:01:01.945Z,99868.88
2023-10-18T16:03:34.161Z,99874.91
2023-10-18T16:06:06.351Z,99866.66
2023-10-18T16:08:36.250Z,99874.22
2023-10-18T16:11:12.527Z,99864.44
2023-10-18T16:13:44.009Z,99868.34
2023-10-18T16:16:16.625Z,99866.56
2023-10-18T16:18:48.003Z,99863.00
2023-10-18T16:21:16.486Z,99857.47
2023-10-18T16:23:52.943Z,99857.34
2023-10-18T16:26:28.121Z,99857.19
2023-10-18T16:29:00.739Z,99848.44
2023-10-18T16:31:34.553Z,99848.06
2023-10-18T16:34:03.138Z,99837.72
2023-10-18T16:36:32.786Z,99836.31
2023-10-18T16:39:05.519Z,99841.34
2023-10-18T16:41:34.632Z,99839.47
2023-10-18T16:44:04.898Z,99836.59
2023-10-18T16:46:36.137Z,99836.69
2023-10-18T16:49:16.149Z,99831.06
2023-10-18T16:51:44.452Z,99829.13
2023-10-18T16:54:13.760Z,99831.78
2023-10-18T16:56:48.016Z,99836.09
2023-10-18T16:59:16.689Z,99827.56
2023-10-18T17:01:46.421Z,99822.94
2023-10-18T17:04:15.772Z,99809.34
2023-10-18T17:06:44.187Z,99812.44
2023-10-18T17:09:19.760Z,99815.41
2023-10-18T17:11:48.376Z,99813.88
2023-10-18T17:14:17.577Z,99803.72
2023-10-18T17:16:52.403Z,99796.66
2023-10-18T17:19:23.594Z,99798.38
2023-10-18T17:21:54.109Z,99793.88
2023-10-18T17:24:29.873Z,99783.25
2023-10-18T17:26:58.184Z,99785.81
2023-10-18T17:29:31.958Z,99788.88
2023-10-18T17:32:01.820Z,99783.00
2023-10-18T17:34:33.151Z,99778.47
2023-10-18T17:37:01.460Z,99775.81
2023-10-18T17:39:32.957Z,99767.88
2023-10-18T17:42:04.416Z,99759.19
2023-10-18T17:44:32.777Z,99763.22
2023-10-18T17:47:06.147Z,99773.97
2023-10-18T17:49:39.306Z,99760.44
2023-10-18T17:52:09.586Z,99754.19
2023-10-18T17:54:40.619Z,99754.81
2023-10-18T17:57:11.521Z,99740.38
2023-10-18T17:59:39.827Z,99741.88
2023-10-18T18:02:13.524Z,99732.16
2023-10-18T18:04:45.619Z,99735.53
2023-10-18T18:07:17.246Z,99734.59
2023-10-18T18:09:45.541Z,99728.00
2023-10-18T18:12:18.549Z,99721.75
2023-10-18T18:14:46.876Z,99722.91
2023-10-18T18:17:19.530Z,99716.69
2023-10-18T18:19:47.890Z,99714.22
2023-10-18T18:22:19.281Z,99700.69
2023-10-18T18:24:47.591Z,99708.06
2023-10-18T18:27:20.971Z,99704.22
2023-10-18T18:29:49.299Z,99692.50
2023-10-18T18:32:19.489Z,99694.59
2023-10-18T18:34:47.838Z,99686.97
2023-10-18T18:37:17.864Z,99685.94
2023-10-18T18:39:46.427Z,99676.66
2023-10-18T18:42:20.644Z,99664.97
2023-10-18T18:44:51.842Z,99669.47
2023-10-18T18:47:24.553Z,99654.06
2023-10-18T18:49:52.956Z,99655.09
2023-10-18T18:52:22.251Z,99659.91
2023-10-18T18:54:52.222Z,99655.78
2023-10-18T18:57:20.487Z,99643.75
2023-10-18T19:00:01.639Z,99641.41
2023-10-18T19:02:34.212Z,99630.00
2023-10-18T19:05:09.224Z,99639.66
2023-10-18T19:07:37.557Z,99633.25
2023-10-18T19:10:08.732Z,99619.03
2023-10-18T19:12:37.064Z,99613.50
2023-10-18T19:15:08.181Z,99617.09
2023-10-18T19:17:40.826Z,99612.91
2023-10-18T19:20:12.821Z,99611.66
2023-10-18T19:22:44.780Z,99599.84
2023-10-18T19:25:13.458Z,99602.41
2023-10-18T19:27:42.275Z,99600.28
2023-10-18T19:30:12.976Z,99603.84
2023-10-18T19:32:45.838Z,99586.75
2023-10-18T19:35:16.251Z,99593.59
2023-10-18T19:37:44.835Z,99585.97
2023-10-18T19:40:14.822Z,99585.63
2023-10-18T19:42:43.629Z,99587.28
2023-10-18T19:45:14.518Z,99590.41
2023-10-18T19:47:43.018Z,99580.91
2023-10-18T19:50:12.946Z,99589.22
2023-10-18T19:52:43.773Z,99590.28
2023-10-18T19:55:18.370Z,99590.44
2023-10-18T19:57:46.667Z,99585.19
2023-10-18T20:00:21.420Z,99579.19
2023-10-18T20:02:50.062Z,99583.94
2023-10-18T20:05:20.025Z,99579.78
2023-10-18T20:07:51.993Z,99575.13
2023-10-18T20:10:20.491Z,99579.09
2023-10-18T20:12:51.653Z,99570.25
2023-10-18T20:15:21.248Z,99567.00
2023-10-18T20:17:49.715Z,99555.66
2023-10-18T20:20:22.696Z,99550.84
2023-10-18T20:23:06.091Z,99546.25
2023-10-18T20:25:34.845Z,99543.63
2023-10-18T20:28:03.487Z,99548.50
2023-10-18T20:30:33.425Z,99539.06
2023-10-18T20:33:01.834Z,99536.41
2023-10-18T20:35:32.002Z,99538.94
2023-10-18T20:38:03.077Z,99533.38
2023-10-18T20:40:31.539Z,99534.47
2023-10-18T20:43:02.036Z,99533.19
2023-10-18T20:45:36.388Z,99528.66
2023-10-18T20:48:09.276Z,99532.34
2023-10-18T20:50:42.243Z,99517.66
2023-10-18T20:53:16.997Z,99512.50
2023-10-18T20:55:45.876Z,99512.47
2023-10-18T20:58:22.909Z,99503.13
2023-10-18T21:00:57.216Z,99494.56
2023-10-18T21:03:26.375Z,99506.91
2023-10-18T21:06:02.859Z,99485.53
2023-10-18T21:08:33.859Z,99487.09
2023-10-18T21:11:07.800Z,99498.47
2023-10-18T21:13:45.432Z,99501.25
2023-10-18T21:16:14.670Z,99487.97
2023-10-18T21:18:44.382Z,99482.06
2023-10-18T21:21:18.684Z,99467.84
2023-10-18T21:23:49.949Z,99451.59
2023-10-18T21:26:24.806Z,99447.03
2023-10-18T21:28:59.558Z,99445.25
2023-10-18T21:31:34.970Z,99445.75
2023-10-18T21:34:04.343Z,99439.00
2023-10-18T21:36:35.067Z,99441.19
2023-10-18T21:39:04.885Z,99438.44
2023-10-18T21:41:33.226Z,99433.78
2023-10-18T21:44:08.694Z,99430.31
2023-10-18T21:46:39.740Z,99422.94
2023-10-18T21:49:08.161Z,99421.09
2023-10-18T21:51:38.149Z,99426.38
2023-10-18T21:54:12.576Z,99430.34
2023-10-18T21:56:42.598Z,99430.06
2023-10-18T21:59:12.893Z,99412.47
2023-10-18T22:01:48.747Z,99405.31
2023-10-18T22:04:22.518Z,99397.19
2023-10-18T22:06:55.716Z,99393.78
2023-10-18T22:09:32.708Z,99380.78
2023-10-18T22:12:04.437Z,99383.44
2023-10-18T22:14:33.109Z,99391.50
2023-10-18T22:17:06.891Z,99396.53
2023-10-18T22:19:38.545Z,99372.44
2023-10-18T22:22:14.001Z,99368.38
2023-10-18T22:24:51.477Z,99368.47
2023-10-18T22:27:24.170Z,99370.16
2023-10-18T22:29:56.028Z,99374.41
2023-10-18T22:32:26.912Z,99365.88
2023-10-18T22:35:04.453Z,99355.16
2023-10-18T22:37:38.199Z,99351.38
2023-10-18T22:40:11.361Z,99356.88
2023-10-18T22:42:46.106Z,99342.56
2023-10-18T22:48:24.633Z,99341.69
2023-10-18T22:51:13.232Z,99329.19
2023-10-18T22:53:52.207Z,99338.59
2023-10-18T22:56:32.320Z,99334.91
2023-10-18T22:59:11.420Z,99325.00
2023-10-18T23:01:40.205Z,99338.25
2023-10-18T23:04:10.609Z,99318.22
2023-10-18T23:06:39.969Z,99313.44
2023-10-18T23:09:12.200Z,99301.03
2023-10-18T23:11:44.767Z,99304.88
2023-10-18T23:14:24.620Z,99304.56
2023-10-18T23:17:24.591Z,99296.75
2023-10-18T23:19:57.651Z,99299.25
2023-10-18T23:22:34.969Z,99296.16
2023-10-18T23:25:22.122Z,99288.75
2023-10-18T23:28:11.424Z,99270.72
2023-10-18T23:30:42.851Z,99271.72
2023-10-18T23:33:27.730Z,99265.78
2023-10-18T23:35:57.966Z,99270.19
2023-10-18T23:38:38.136Z,99259.72
2023-10-18T23:41:12.341Z,99260.25
2023-10-18T23:43:57.559Z,99258.16
2023-10-18T23:46:58.723Z,99264.38
2023-10-18T23:49:46.223Z,99270.19
2023-10-18T23:52:34.439Z,99267.63
2023-10-18T23:55:12.377Z,99265.66
2023-10-18T23:57:51.541Z,99254.44
